createdAt,value
2022-11-21T00:00:53.158Z,20.1
2022-11-21T00:02:53.074Z,20.4
2022-11-21T00:04:53.058Z,20.2
2022-11-21T00:06:53.040Z,19.9
2022-11-21T00:08:53.233Z,19.8
2022-11-21T00:10:53.055Z,19.9
2022-11-21T00:12:53.053Z,19.8
2022-11-21T00:14:53.100Z,19.9
2022-11-21T00:16:57.178Z,19.7
2022-11-21T00:19:23.050Z,20.1
2022-11-21T00:21:23.056Z,20.1
2022-11-21T00:23:23.131Z,20.2
2022-11-21T00:25:23.207Z,20.2
2022-11-21T00:27:23.159Z,20.3
2022-11-21T00:29:23.109Z,20.1
2022-11-21T00:31:23.093Z,20.2
2022-11-21T00:33:23.121Z,20.1
2022-11-21T00:35:23.078Z,20.0
2022-11-21T00:37:23.108Z,20.3
2022-11-21T00:39:23.207Z,20.0
2022-11-21T00:41:23.086Z,20.0
2022-11-21T00:43:23.049Z,19.7
2022-11-21T00:45:24.460Z,20.0
2022-11-21T00:47:23.056Z,19.8
2022-11-21T00:49:23.054Z,19.8
2022-11-21T00:51:23.216Z,20.0
2022-11-21T00:53:23.081Z,20.0
2022-11-21T00:55:23.138Z,20.1
2022-11-21T00:57:23.188Z,20.4
2022-11-21T00:59:23.062Z,20.6
2022-11-21T01:01:23.070Z,20.6
2022-11-21T01:03:23.175Z,20.5
2022-11-21T01:05:23.148Z,20.6
2022-11-21T01:09:23.252Z,20.4
2022-11-21T01:13:18.206Z,20.3
2022-11-21T01:15:18.231Z,20.3
2022-11-21T01:17:18.263Z,20.4
2022-11-21T01:19:18.262Z,20.1
2022-11-21T01:21:18.245Z,20.3
2022-11-21T01:23:18.210Z,20.2
2022-11-21T01:25:18.304Z,20.4
2022-11-21T01:27:18.271Z,20.4
2022-11-21T01:29:18.246Z,20.2
2022-11-21T01:31:18.316Z,20.1
2022-11-21T01:33:18.275Z,20.3
2022-11-21T01:35:18.284Z,20.5
2022-11-21T01:37:18.213Z,20.4
2022-11-21T01:39:18.267Z,20.9
2022-11-21T01:41:18.209Z,20.9
2022-11-21T01:43:18.232Z,20.9
2022-11-21T01:45:18.320Z,20.7
2022-11-21T01:47:18.219Z,20.6
2022-11-21T01:49:18.285Z,20.6
2022-11-21T01:51:18.291Z,20.3
2022-11-21T01:53:48.305Z,20.4
2022-11-21T01:55:48.265Z,20.2
2022-11-21T01:57:48.342Z,19.9
2022-11-21T01:59:48.242Z,20.1
2022-11-21T02:01:48.384Z,19.9
2022-11-21T02:03:48.290Z,19.9
2022-11-21T02:05:48.287Z,19.9
2022-11-21T02:07:48.249Z,20.0
2022-11-21T02:09:48.286Z,19.9
2022-11-21T02:11:48.258Z,19.6
2022-11-21T02:13:48.276Z,19.8
2022-11-21T02:15:48.291Z,19.6
2022-11-21T02:17:48.240Z,19.4
2022-11-21T02:19:48.269Z,19.5
2022-11-21T02:21:48.297Z,19.5
2022-11-21T02:23:48.238Z,19.7
2022-11-21T02:25:48.262Z,19.3
2022-11-21T02:27:48.312Z,19.4
2022-11-21T02:29:48.265Z,19.8
2022-11-21T02:31:48.225Z,20.0
2022-11-21T02:33:48.365Z,19.9
2022-11-21T02:35:48.316Z,19.7
2022-11-21T02:37:48.243Z,19.5
2022-11-21T02:39:48.235Z,19.6
2022-11-21T02:41:48.264Z,19.7
2022-11-21T02:43:48.333Z,19.7
2022-11-21T02:45:48.305Z,19.8
2022-11-21T02:47:48.377Z,19.8
2022-11-21T02:49:48.252Z,20.1
2022-11-21T02:51:48.307Z,20.4
2022-11-21T02:53:48.249Z,20.3
2022-11-21T02:55:48.307Z,20.3
2022-11-21T02:57:48.391Z,20.4
2022-11-21T02:59:48.278Z,20.4
2022-11-21T03:01:48.302Z,20.2
2022-11-21T03:03:48.335Z,20.2
2022-11-21T03:05:48.294Z,20.3
2022-11-21T03:07:48.341Z,20.4
2022-11-21T03:09:48.321Z,20.6
2022-11-21T03:11:48.355Z,20.6
2022-11-21T03:13:48.273Z,20.8
2022-11-21T03:15:48.373Z,20.9
2022-11-21T03:17:48.279Z,21.0
2022-11-21T03:19:48.336Z,20.8
2022-11-21T03:21:48.272Z,20.7
2022-11-21T03:23:48.315Z,20.6
2022-11-21T03:25:48.420Z,20.9
2022-11-21T03:27:48.288Z,20.5
2022-11-21T03:29:48.355Z,20.5
2022-11-21T03:31:48.296Z,20.2
2022-11-21T03:33:48.322Z,20.5
2022-11-21T03:35:48.327Z,20.6
2022-11-21T03:37:48.330Z,20.7
2022-11-21T03:39:48.364Z,20.6
2022-11-21T03:41:48.320Z,20.6
2022-11-21T03:43:48.385Z,20.6
2022-11-21T03:46:18.318Z,20.8
2022-11-21T03:48:18.302Z,20.9
2022-11-21T03:50:18.278Z,20.6
2022-11-21T03:52:18.291Z,20.7
2022-11-21T03:54:18.282Z,21.0
2022-11-21T03:56:18.337Z,20.9
2022-11-21T03:58:18.302Z,20.8
2022-11-21T04:00:18.288Z,20.9
2022-11-21T04:02:18.315Z,21.0
2022-11-21T04:04:18.303Z,20.9
2022-11-21T04:06:18.319Z,20.9
2022-11-21T04:08:18.337Z,20.9
2022-11-21T04:10:18.365Z,20.6
2022-11-21T04:12:18.346Z,20.7
2022-11-21T04:14:18.342Z,20.7
2022-11-21T04:16:18.452Z,20.8
2022-11-21T04:18:18.337Z,20.7
2022-11-21T04:20:18.417Z,20.9
2022-11-21T04:22:18.321Z,21.0
2022-11-21T04:24:18.402Z,21.3
2022-11-21T04:26:18.293Z,21.1
2022-11-21T04:28:18.302Z,21.2
2022-11-21T04:30:18.293Z,21.3
2022-11-21T04:32:18.454Z,21.5
2022-11-21T04:34:18.314Z,21.1
2022-11-21T04:36:18.306Z,21.0
2022-11-21T04:38:18.302Z,20.9
2022-11-21T04:40:18.346Z,20.7
2022-11-21T04:42:18.310Z,20.7
2022-11-21T04:44:18.331Z,20.5
2022-11-21T04:46:18.354Z,20.4
2022-11-21T04:48:18.442Z,20.5
2022-11-21T04:50:18.320Z,20.1
2022-11-21T04:52:18.411Z,20.2
2022-11-21T04:54:18.365Z,19.9
2022-11-21T04:56:18.433Z,19.9
2022-11-21T04:58:18.347Z,19.9
2022-11-21T05:00:23.763Z,20.0
2022-11-21T05:02:18.302Z,20.0
2022-11-21T05:04:18.507Z,19.9
2022-11-21T05:06:18.365Z,19.6
2022-11-21T05:08:18.327Z,19.5
2022-11-21T05:10:18.463Z,19.7
2022-11-21T05:12:18.342Z,19.7
2022-11-21T05:14:18.343Z,19.4
2022-11-21T05:16:18.364Z,19.2
2022-11-21T05:18:18.324Z,19.1
2022-11-21T05:20:18.349Z,19.1
2022-11-21T05:22:18.400Z,19.1
2022-11-21T05:24:18.369Z,18.9
2022-11-21T05:26:18.404Z,19.0
2022-11-21T05:28:18.380Z,19.0
2022-11-21T05:30:18.336Z,19.0
2022-11-21T05:32:18.385Z,18.8
2022-11-21T05:34:18.353Z,19.0
2022-11-21T05:36:18.396Z,19.2
2022-11-21T05:38:18.410Z,19.0
2022-11-21T05:40:48.425Z,19.1
2022-11-21T05:42:48.472Z,19.3
2022-11-21T05:44:48.464Z,19.4
2022-11-21T05:46:48.332Z,19.4
2022-11-21T05:48:48.344Z,19.4
2022-11-21T05:50:48.334Z,19.6
2022-11-21T05:52:48.406Z,19.5
2022-11-21T05:54:48.375Z,19.5
2022-11-21T05:56:48.340Z,19.6
2022-11-21T05:58:48.337Z,19.7
2022-11-21T06:00:48.404Z,19.6
2022-11-21T06:02:48.455Z,20.1
2022-11-21T06:04:48.367Z,20.2
2022-11-21T06:06:48.350Z,20.1
2022-11-21T06:08:48.340Z,20.4
2022-11-21T06:10:48.495Z,20.4
2022-11-21T06:12:48.456Z,20.4
2022-11-21T06:14:48.384Z,20.7
2022-11-21T06:16:48.367Z,20.8
2022-11-21T06:18:48.408Z,21.3
2022-11-21T06:20:48.366Z,20.9
2022-11-21T06:22:48.459Z,21.1
2022-11-21T06:24:48.476Z,21.1
2022-11-21T06:26:48.402Z,21.2
2022-11-21T06:28:48.372Z,21.2
2022-11-21T06:30:48.476Z,21.2
2022-11-21T06:32:48.449Z,21.2
2022-11-21T06:34:48.363Z,21.0
2022-11-21T06:36:48.402Z,20.8
2022-11-21T06:38:48.499Z,21.1
2022-11-21T06:40:48.436Z,21.0
2022-11-21T06:42:48.354Z,20.9
2022-11-21T06:44:48.379Z,20.8
2022-11-21T06:46:50.961Z,20.7
2022-11-21T06:48:48.357Z,20.7
2022-11-21T06:50:48.379Z,20.7
2022-11-21T06:52:48.378Z,20.4
2022-11-21T06:54:48.484Z,20.6
2022-11-21T06:56:48.450Z,20.7
2022-11-21T06:58:48.387Z,20.4
2022-11-21T07:00:48.525Z,20.4
2022-11-21T07:02:48.531Z,20.1
2022-11-21T07:04:48.428Z,20.1
2022-11-21T07:06:48.450Z,20.2
2022-11-21T07:09:00.006Z,20.0
2022-11-21T07:11:10.111Z,19.9
2022-11-21T07:12:48.396Z,19.8
2022-11-21T07:14:48.398Z,19.9
2022-11-21T07:16:48.387Z,20.0
2022-11-21T07:20:48.445Z,19.9
2022-11-21T07:22:48.418Z,20.0
2022-11-21T07:24:48.407Z,20.0
2022-11-21T07:26:48.423Z,20.0
2022-11-21T07:28:48.387Z,20.1
2022-11-21T07:30:48.433Z,20.3
2022-11-21T07:33:18.421Z,20.3
2022-11-21T07:35:18.410Z,20.4
2022-11-21T07:37:18.443Z,20.5
2022-11-21T07:39:18.389Z,20.6
2022-11-21T07:41:18.491Z,20.8
2022-11-21T07:43:18.383Z,20.8
2022-11-21T07:45:18.482Z,20.8
2022-11-21T07:47:18.727Z,20.8
2022-11-21T07:49:18.448Z,20.8
2022-11-21T07:51:18.510Z,21.0
2022-11-21T07:53:18.399Z,20.7
2022-11-21T07:55:18.466Z,20.9
2022-11-21T07:57:18.427Z,21.0
2022-11-21T07:59:18.543Z,21.1
2022-11-21T08:01:18.440Z,21.2
2022-11-21T08:03:18.420Z,20.9
2022-11-21T08:05:18.406Z,21.2
2022-11-21T08:07:18.559Z,21.2
2022-11-21T08:09:18.410Z,21.2
2022-11-21T08:10:58.872Z,21.3
2022-11-21T08:13:28.790Z,21.3
2022-11-21T08:15:28.824Z,21.1
2022-11-21T08:17:28.825Z,20.8
2022-11-21T08:19:29.086Z,20.8
2022-11-21T08:21:28.825Z,20.5
2022-11-21T08:23:28.802Z,20.4
2022-11-21T08:25:28.879Z,20.2
2022-11-21T08:27:28.837Z,20.1
2022-11-21T08:29:29.112Z,20.0
2022-11-21T08:31:28.869Z,19.6
2022-11-21T08:33:28.822Z,19.8
2022-11-21T08:35:28.824Z,20.0
2022-11-21T08:37:28.790Z,20.0
2022-11-21T08:39:29.013Z,19.8
2022-11-21T08:41:28.878Z,19.6
2022-11-21T08:43:28.837Z,19.6
2022-11-21T08:45:28.933Z,19.7
2022-11-21T08:47:28.850Z,19.5
2022-11-21T08:49:28.958Z,19.2
2022-11-21T08:51:28.868Z,19.1
2022-11-21T08:53:28.853Z,19.4
2022-11-21T08:55:28.860Z,19.2
2022-11-21T08:57:28.931Z,18.9
2022-11-21T08:59:28.908Z,18.8
2022-11-21T09:01:28.875Z,18.9
2022-11-21T09:03:31.347Z,19.0
2022-11-21T09:05:28.888Z,19.0
2022-11-21T09:07:28.919Z,18.9
2022-11-21T09:09:28.861Z,19.0
2022-11-21T09:11:28.866Z,19.4
2022-11-21T09:13:28.896Z,19.6
2022-11-21T09:15:28.883Z,19.8
2022-11-21T09:17:28.872Z,20.0
2022-11-21T09:19:29.007Z,19.8
2022-11-21T09:21:28.831Z,20.0
2022-11-21T09:23:28.828Z,20.1
2022-11-21T09:25:28.903Z,20.0
2022-11-21T09:27:28.857Z,20.2
2022-11-21T09:29:29.000Z,20.5
2022-11-21T09:31:29.008Z,20.5
2022-11-21T09:33:28.837Z,20.3
2022-11-21T09:35:28.986Z,20.3
2022-11-21T09:37:28.883Z,20.2
2022-11-21T09:39:29.182Z,20.4
2022-11-21T09:41:28.906Z,20.4
2022-11-21T09:43:28.894Z,20.6
2022-11-21T09:45:28.954Z,20.8
2022-11-21T09:47:28.889Z,20.9
2022-11-21T09:49:29.150Z,21.1
2022-11-21T09:51:28.995Z,21.0
2022-11-21T09:53:28.904Z,21.0
2022-11-21T09:55:28.903Z,21.1
2022-11-21T09:57:33.581Z,21.3
2022-11-21T09:59:28.886Z,21.4
2022-11-21T10:01:28.953Z,21.2
2022-11-21T10:03:28.962Z,21.6
2022-11-21T10:05:58.876Z,21.4
2022-11-21T10:07:58.878Z,21.1
2022-11-21T10:09:58.866Z,20.9
2022-11-21T10:11:58.911Z,20.7
2022-11-21T10:13:58.914Z,20.5
2022-11-21T10:15:58.921Z,20.0
2022-11-21T10:17:58.904Z,19.9
2022-11-21T10:19:58.926Z,20.0
2022-11-21T10:21:59.049Z,20.0
2022-11-21T10:23:59.009Z,20.0
2022-11-21T10:25:58.919Z,20.0
2022-11-21T10:27:58.897Z,20.1
2022-11-21T10:29:58.941Z,19.8
2022-11-21T10:31:58.915Z,19.7
2022-11-21T10:33:58.952Z,19.9
2022-11-21T10:35:58.921Z,19.9
2022-11-21T10:37:58.883Z,19.9
2022-11-21T10:39:59.017Z,19.8
2022-11-21T10:41:58.910Z,19.6
2022-11-21T10:43:58.900Z,19.4
2022-11-21T10:45:58.945Z,19.1
2022-11-21T10:48:02.589Z,19.1
2022-11-21T10:49:58.938Z,18.8
2022-11-21T10:51:58.949Z,19.2
2022-11-21T10:54:03.227Z,19.0
2022-11-21T10:55:58.941Z,18.9
2022-11-21T10:57:58.880Z,19.0
2022-11-21T10:59:58.996Z,18.9
2022-11-21T11:01:58.952Z,19.1
2022-11-21T11:04:20.830Z,19.0
2022-11-21T11:05:58.940Z,19.0
2022-11-21T11:07:58.930Z,19.2
2022-11-21T11:09:58.967Z,19.3
2022-11-21T11:11:58.926Z,19.4
2022-11-21T11:13:58.912Z,19.2
2022-11-21T11:15:58.969Z,19.4
2022-11-21T11:18:01.513Z,19.6
2022-11-21T11:19:58.951Z,19.8
2022-11-21T11:21:58.977Z,19.9
2022-11-21T11:23:59.075Z,20.1
2022-11-21T11:25:58.907Z,20.1
2022-11-21T11:27:58.970Z,19.9
2022-11-21T11:29:58.917Z,19.9
2022-11-21T11:31:58.925Z,19.9
2022-11-21T11:33:58.964Z,19.9
2022-11-21T11:35:58.900Z,19.6
2022-11-21T11:37:59.071Z,19.6
2022-11-21T11:39:59.089Z,19.4
2022-11-21T11:41:58.919Z,19.9
2022-11-21T11:43:58.953Z,20.1
2022-11-21T11:45:58.978Z,20.1
2022-11-21T11:47:59.120Z,20.4
2022-11-21T11:49:58.940Z,20.5
2022-11-21T11:51:58.958Z,20.2
2022-11-21T11:54:01.262Z,20.2
2022-11-21T11:55:58.970Z,20.5
2022-11-21T11:57:58.974Z,20.5
2022-11-21T11:59:59.002Z,20.6
2022-11-21T12:01:59.031Z,20.6
2022-11-21T12:04:29.195Z,20.5
2022-11-21T12:06:54.743Z,20.6
2022-11-21T12:08:42.799Z,20.6
2022-11-21T12:10:28.953Z,20.5
2022-11-21T12:12:29.121Z,20.6
2022-11-21T12:14:29.033Z,20.9
2022-11-21T12:16:28.969Z,20.8
2022-11-21T12:18:28.962Z,20.5
2022-11-21T12:20:28.956Z,20.5
2022-11-21T12:22:28.972Z,20.0
2022-11-21T12:24:29.137Z,20.1
2022-11-21T12:26:28.987Z,20.1
2022-11-21T12:28:28.983Z,20.3
2022-11-21T12:30:29.010Z,20.2
2022-11-21T12:32:28.946Z,20.2
2022-11-21T12:34:28.975Z,20.2
2022-11-21T12:36:29.064Z,20.4
2022-11-21T12:38:29.115Z,20.6
2022-11-21T12:40:29.005Z,20.6
2022-11-21T12:42:28.983Z,20.8
2022-11-21T12:44:29.019Z,20.5
2022-11-21T12:46:29.102Z,20.4
2022-11-21T12:48:28.953Z,20.5
2022-11-21T12:50:30.196Z,20.6
2022-11-21T12:52:29.044Z,20.8
2022-11-21T12:54:29.093Z,20.8
2022-11-21T12:56:29.242Z,20.7
2022-11-21T12:58:29.152Z,20.7
2022-11-21T13:00:29.054Z,20.5
2022-11-21T13:02:29.037Z,20.3
2022-11-21T13:04:29.083Z,20.2
2022-11-21T13:06:29.085Z,20.4
2022-11-21T13:08:29.093Z,20.5
2022-11-21T13:10:28.981Z,20.5
2022-11-21T13:12:29.090Z,20.3
2022-11-21T13:14:29.013Z,20.3
2022-11-21T13:16:29.054Z,20.3
2022-11-21T13:18:29.054Z,20.5
2022-11-21T13:20:29.124Z,20.4
2022-11-21T13:22:29.126Z,20.6
2022-11-21T13:24:29.115Z,20.5
2022-11-21T13:26:29.061Z,20.8
2022-11-21T13:28:29.118Z,20.8
2022-11-21T13:30:29.071Z,21.0
2022-11-21T13:32:29.067Z,20.8
2022-11-21T13:34:29.190Z,21.0
2022-11-21T13:36:29.074Z,21.1
2022-11-21T13:38:29.104Z,20.8
2022-11-21T13:40:29.116Z,20.8
2022-11-21T13:42:29.077Z,20.5
2022-11-21T13:44:28.986Z,20.7
2022-11-21T13:46:29.102Z,20.6
2022-11-21T13:48:30.135Z,20.6
2022-11-21T13:50:29.104Z,20.8
2022-11-21T13:52:29.064Z,20.9
2022-11-21T13:54:29.111Z,20.6
2022-11-21T13:56:29.097Z,20.6
2022-11-21T13:58:29.050Z,20.8
2022-11-21T14:00:29.059Z,20.8
2022-11-21T14:02:59.063Z,20.7
2022-11-21T14:04:59.074Z,20.7
2022-11-21T14:06:59.186Z,20.5
2022-11-21T14:08:59.105Z,20.6
2022-11-21T14:10:59.138Z,20.5
2022-11-21T14:12:59.040Z,20.8
2022-11-21T14:14:59.030Z,20.7
2022-11-21T14:16:59.068Z,20.8
2022-11-21T14:18:59.090Z,21.0
2022-11-21T14:20:59.131Z,21.2
2022-11-21T14:22:59.123Z,21.2
2022-11-21T14:24:59.155Z,21.1
2022-11-21T14:26:59.140Z,21.0
2022-11-21T14:28:59.067Z,20.8
2022-11-21T14:30:59.120Z,21.0
2022-11-21T14:32:59.188Z,21.5
2022-11-21T14:34:59.111Z,21.4
2022-11-21T14:36:59.202Z,21.4
2022-11-21T14:39:20.807Z,21.5
2022-11-21T14:41:00.081Z,21.7
2022-11-21T14:42:59.148Z,21.7
2022-11-21T14:44:59.151Z,21.7
2022-11-21T14:46:59.094Z,21.4
2022-11-21T14:48:59.262Z,21.5
2022-11-21T14:51:13.776Z,21.5
2022-11-21T14:52:59.140Z,21.4
2022-11-21T14:55:29.750Z,21.5
2022-11-21T14:56:59.156Z,21.8
2022-11-21T14:58:59.126Z,21.5
2022-11-21T15:01:07.208Z,21.3
2022-11-21T15:02:47.730Z,21.6
2022-11-21T15:04:48.103Z,21.5
2022-11-21T15:06:47.743Z,21.4
2022-11-21T15:10:47.780Z,21.1
2022-11-21T15:13:17.806Z,20.9
2022-11-21T15:15:17.854Z,20.5
2022-11-21T15:17:17.856Z,20.8
2022-11-21T15:19:17.870Z,20.6
2022-11-21T15:21:17.863Z,20.9
2022-11-21T15:23:17.813Z,20.6
2022-11-21T15:25:20.540Z,20.6
2022-11-21T15:27:17.835Z,20.7
2022-11-21T15:29:17.816Z,20.5
2022-11-21T15:31:17.847Z,20.3
2022-11-21T15:33:17.869Z,20.2
2022-11-21T15:35:17.862Z,20.4
2022-11-21T15:37:17.796Z,20.3
2022-11-21T15:39:17.819Z,20.2
2022-11-21T15:41:17.826Z,20.1
2022-11-21T15:43:17.861Z,20.2
2022-11-21T15:45:20.252Z,20.5
2022-11-21T15:47:17.919Z,20.2
2022-11-21T15:51:20.487Z,20.5
2022-11-21T15:53:17.795Z,20.7
2022-11-21T15:55:17.801Z,20.6
2022-11-21T15:57:13.221Z,20.2
2022-11-21T15:59:17.869Z,20.4
2022-11-21T16:01:17.784Z,20.4
2022-11-21T16:03:17.801Z,20.4
2022-11-21T16:05:17.754Z,20.6
2022-11-21T16:07:17.893Z,21.0
2022-11-21T16:09:17.806Z,21.2
2022-11-21T16:11:17.784Z,21.6
2022-11-21T16:13:17.847Z,21.6
2022-11-21T16:15:17.920Z,21.9
2022-11-21T16:17:17.870Z,21.6
2022-11-21T16:19:17.799Z,21.6
2022-11-21T16:21:17.930Z,21.3
2022-11-21T16:23:17.988Z,21.5
2022-11-21T16:25:17.919Z,21.5
2022-11-21T16:27:17.839Z,21.6
2022-11-21T16:29:17.860Z,21.7
2022-11-21T16:31:17.866Z,21.6
2022-11-21T16:33:19.746Z,21.5
2022-11-21T16:35:17.921Z,21.4
2022-11-21T16:37:17.879Z,21.5
2022-11-21T16:39:18.486Z,21.4
2022-11-21T16:41:17.864Z,21.4
2022-11-21T16:43:18.886Z,21.4
2022-11-21T16:45:17.941Z,21.4
2022-11-21T16:47:17.886Z,21.4
2022-11-21T16:49:17.866Z,21.4
2022-11-21T16:51:17.951Z,21.3
2022-11-21T16:53:17.832Z,21.1
2022-11-21T16:55:17.874Z,21.5
2022-11-21T16:57:17.864Z,21.5
2022-11-21T16:59:18.123Z,21.7
2022-11-21T17:01:17.854Z,21.6
2022-11-21T17:03:17.971Z,21.6
2022-11-21T17:07:47.885Z,21.0
2022-11-21T17:09:48.001Z,21.0
2022-11-21T17:11:48.022Z,21.0
2022-11-21T17:13:47.866Z,21.1
2022-11-21T17:15:48.037Z,21.0
2022-11-21T17:17:48.226Z,21.3
2022-11-21T17:19:48.032Z,20.9
2022-11-21T17:21:48.082Z,21.0
2022-11-21T17:23:48.187Z,21.1
2022-11-21T17:25:47.909Z,21.0
2022-11-21T17:27:47.902Z,21.0
2022-11-21T17:29:48.045Z,20.7
2022-11-21T17:31:47.873Z,20.7
2022-11-21T17:33:47.943Z,20.7
2022-11-21T17:35:47.936Z,20.6
2022-11-21T17:37:47.875Z,20.1
2022-11-21T17:39:48.193Z,20.2
2022-11-21T17:41:47.945Z,20.2
2022-11-21T17:43:47.893Z,19.9
2022-11-21T17:45:47.952Z,19.9
2022-11-21T17:47:47.951Z,20.4
2022-11-21T17:49:48.048Z,20.0
2022-11-21T17:51:49.662Z,19.9
2022-11-21T17:53:47.907Z,19.9
2022-11-21T17:55:47.858Z,19.7
2022-11-21T17:57:47.883Z,19.6
2022-11-21T17:59:47.948Z,19.6
2022-11-21T18:01:47.889Z,19.6
2022-11-21T18:03:47.796Z,19.7
2022-11-21T18:05:51.644Z,20.1
2022-11-21T18:07:47.930Z,20.1
2022-11-21T18:09:48.012Z,19.9
2022-11-21T18:11:47.918Z,19.9
2022-11-21T18:13:48.138Z,19.7
2022-11-21T18:15:48.123Z,19.9
2022-11-21T18:17:47.864Z,19.9
2022-11-21T18:19:47.946Z,20.1
2022-11-21T18:21:47.990Z,20.1
2022-11-21T18:23:47.874Z,20.0
2022-11-21T18:25:47.896Z,20.0
2022-11-21T18:27:54.297Z,20.0
2022-11-21T18:29:47.932Z,20.2
2022-11-21T18:31:47.843Z,20.3
2022-11-21T18:33:47.872Z,20.3
2022-11-21T18:35:47.959Z,20.5
2022-11-21T18:37:47.877Z,20.7
2022-11-21T18:39:47.840Z,20.5
2022-11-21T18:41:47.895Z,20.4
2022-11-21T18:43:47.925Z,20.4
2022-11-21T18:45:47.879Z,20.5
2022-11-21T18:47:48.467Z,20.1
2022-11-21T18:49:48.153Z,20.3
2022-11-21T18:51:48.452Z,20.2
2022-11-21T18:53:48.008Z,20.6
2022-11-21T18:56:17.938Z,20.5
2022-11-21T18:58:17.912Z,20.4
2022-11-21T19:00:17.945Z,20.1
2022-11-21T19:02:17.878Z,20.0
2022-11-21T19:04:17.875Z,20.0
2022-11-21T19:06:17.864Z,19.7
2022-11-21T19:08:17.916Z,19.6
2022-11-21T19:10:42.141Z,19.4
2022-11-21T19:12:17.960Z,19.5
2022-11-21T19:14:17.964Z,19.6
2022-11-21T19:16:17.883Z,19.4
2022-11-21T19:18:18.021Z,19.7
2022-11-21T19:20:17.869Z,19.5
2022-11-21T19:22:17.881Z,19.5
2022-11-21T19:24:17.929Z,19.4
2022-11-21T19:26:17.959Z,19.5
2022-11-21T19:28:17.927Z,19.5
2022-11-21T19:30:17.998Z,19.8
2022-11-21T19:32:17.945Z,19.7
2022-11-21T19:34:17.934Z,19.9
2022-11-21T19:36:17.872Z,19.9
2022-11-21T19:38:17.914Z,20.3
2022-11-21T19:40:18.030Z,20.4
2022-11-21T19:42:17.915Z,20.7
2022-11-21T19:44:17.978Z,20.7
2022-11-21T19:46:17.993Z,20.6
2022-11-21T19:48:18.015Z,20.6
2022-11-21T19:50:17.900Z,20.6
2022-11-21T19:52:17.949Z,20.7
2022-11-21T19:54:17.912Z,20.4
2022-11-21T19:56:18.064Z,20.5
2022-11-21T19:58:17.946Z,20.7
2022-11-21T20:00:18.013Z,20.8
2022-11-21T20:02:17.881Z,20.8
2022-11-21T20:04:17.974Z,20.9
2022-11-21T20:06:17.900Z,21.1
2022-11-21T20:08:18.386Z,21.1
2022-11-21T20:10:17.966Z,21.5
2022-11-21T20:12:17.982Z,21.3
2022-11-21T20:14:21.787Z,21.4
2022-11-21T20:16:18.048Z,21.3
2022-11-21T20:18:18.009Z,21.1
2022-11-21T20:20:18.064Z,21.2
2022-11-21T20:22:17.977Z,21.6
2022-11-21T20:24:17.959Z,21.6
2022-11-21T20:26:19.053Z,21.5
2022-11-21T20:28:17.964Z,21.5
2022-11-21T20:30:18.012Z,21.8
2022-11-21T20:32:17.916Z,21.9
2022-11-21T20:34:18.013Z,21.8
2022-11-21T20:36:17.954Z,22.1
2022-11-21T20:38:23.007Z,22.1
2022-11-21T20:40:17.937Z,22.4
2022-11-21T20:42:20.035Z,22.2
2022-11-21T20:46:20.619Z,22.4
2022-11-21T20:48:20.487Z,22.4
2022-11-21T20:52:04.373Z,22.3
2022-11-21T20:54:47.964Z,22.3
2022-11-21T20:56:48.063Z,22.2
2022-11-21T20:58:48.023Z,22.3
2022-11-21T21:00:48.016Z,22.5
2022-11-21T21:02:47.896Z,22.6
2022-11-21T21:04:48.057Z,22.8
2022-11-21T21:06:48.006Z,22.7
2022-11-21T21:08:47.929Z,22.8
2022-11-21T21:11:05.183Z,22.7
2022-11-21T21:12:48.832Z,22.9
2022-11-21T21:14:48.018Z,22.7
2022-11-21T21:16:48.055Z,22.8
2022-11-21T21:18:52.326Z,22.6
2022-11-21T21:21:14.897Z,22.4
2022-11-21T21:22:48.008Z,22.2
2022-11-21T21:24:47.997Z,22.3
2022-11-21T21:26:48.014Z,22.6
2022-11-21T21:28:48.045Z,22.4
2022-11-21T21:30:48.048Z,22.0
2022-11-21T21:32:48.084Z,22.0
2022-11-21T21:34:48.112Z,21.9
2022-11-21T21:36:48.080Z,21.4
2022-11-21T21:38:48.087Z,21.1
2022-11-21T21:40:48.008Z,20.7
2022-11-21T21:42:48.037Z,20.8
2022-11-21T21:44:48.066Z,20.9
2022-11-21T21:46:48.055Z,20.9
2022-11-21T21:48:48.006Z,21.1
2022-11-21T21:50:47.953Z,21.2
2022-11-21T21:52:47.982Z,21.1
2022-11-21T21:54:48.098Z,21.0
2022-11-21T21:56:48.146Z,21.0
2022-11-21T21:58:48.198Z,20.8
2022-11-21T22:00:48.134Z,20.7
2022-11-21T22:02:48.101Z,20.8
2022-11-21T22:06:48.440Z,20.5
2022-11-21T22:08:48.136Z,20.2
2022-11-21T22:12:48.009Z,20.3
2022-11-21T22:16:48.069Z,20.5
2022-11-21T22:18:58.702Z,20.9
2022-11-21T22:20:58.703Z,21.2
2022-11-21T22:23:00.501Z,21.3
2022-11-21T22:24:58.692Z,21.3
2022-11-21T22:26:58.692Z,21.1
2022-11-21T22:28:58.797Z,21.1
2022-11-21T22:30:58.736Z,21.1
2022-11-21T22:32:58.744Z,21.1
2022-11-21T22:34:58.672Z,21.2
2022-11-21T22:36:58.657Z,21.5
2022-11-21T22:38:58.762Z,21.5
2022-11-21T22:40:58.723Z,22.0
2022-11-21T22:42:58.809Z,22.0
2022-11-21T22:44:58.678Z,21.9
2022-11-21T22:46:58.721Z,21.9
2022-11-21T22:48:58.800Z,21.6
2022-11-21T22:50:58.673Z,21.7
2022-11-21T22:52:58.692Z,21.8
2022-11-21T22:54:58.723Z,21.7
2022-11-21T22:56:58.694Z,21.9
2022-11-21T22:58:58.727Z,22.0
2022-11-21T23:00:58.733Z,22.1
2022-11-21T23:02:58.719Z,21.9
2022-11-21T23:04:58.708Z,22.0
2022-11-21T23:06:58.733Z,22.0
2022-11-21T23:08:58.681Z,22.3
2022-11-21T23:10:58.822Z,22.1
2022-11-21T23:12:58.666Z,22.0
2022-11-21T23:14:58.723Z,21.7
2022-11-21T23:16:58.681Z,21.7
2022-11-21T23:18:58.731Z,21.6
2022-11-21T23:20:58.746Z,21.3
2022-11-21T23:22:58.685Z,21.4
2022-11-21T23:25:28.790Z,21.7
2022-11-21T23:27:28.724Z,21.5
2022-11-21T23:29:28.935Z,21.8
2022-11-21T23:31:28.730Z,21.7
2022-11-21T23:33:28.698Z,21.7
2022-11-21T23:35:28.706Z,21.4
2022-11-21T23:37:28.854Z,21.4
2022-11-21T23:39:29.209Z,21.0
2022-11-21T23:41:28.850Z,21.0
2022-11-21T23:43:28.717Z,20.9
2022-11-21T23:45:28.844Z,20.9
2022-11-21T23:47:28.764Z,20.7
2022-11-21T23:49:28.897Z,20.8
2022-11-21T23:51:28.815Z,20.8
2022-11-21T23:53:28.886Z,20.8
2022-11-21T23:55:28.693Z,21.0
2022-11-21T23:57:28.710Z,20.8
2022-11-21T23:59:28.918Z,20.9
